Time;durP1;ratioP1;P1;durP2;ratioP2;P2;SDS_P1;SDS_P2;PMS_P1;PMS_P2;Temp;Humidity;BMP_temperature;BMP_pressure;BME280_temperature;BME280_humidity;BME280_pressure;Samples;Min_cycle;Max_cycle;Signal;HPM_P1;HPM_P2
2022/03/17 00:00:07;;;;;;;27.40;17.90;;;;;;;9.41;100.00;100561.22;5029936;28;20045;-79
2022/03/17 00:02:34;;;;;;;24.05;16.85;;;;;;;9.42;100.00;100573.41;5030083;28;20072;-80
2022/03/17 00:04:59;;;;;;;26.65;16.27;;;;;;;9.44;100.00;100563.63;5029564;28;20151;-79
2022/03/17 00:07:25;;;;;;;29.25;17.10;;;;;;;9.48;100.00;100568.69;5030193;28;20053;-79
2022/03/17 00:09:50;;;;;;;27.45;16.77;;;;;;;9.45;100.00;100560.03;5029829;28;20026;-79
2022/03/17 00:12:16;;;;;;;24.73;16.40;;;;;;;9.51;100.00;100573.72;5029974;28;20072;-79
2022/03/17 00:14:41;;;;;;;24.98;16.17;;;;;;;9.52;100.00;100565.72;5029317;28;20022;-79
2022/03/17 00:17:08;;;;;;;24.60;16.67;;;;;;;9.54;100.00;100569.09;5030097;28;20038;-79
2022/03/17 00:19:36;;;;;;;26.45;17.52;;;;;;;9.55;100.00;100569.88;5021374;28;20331;-78
2022/03/17 00:22:04;;;;;;;27.63;17.20;;;;;;;9.53;100.00;100566.53;5029663;28;20033;-77
2022/03/17 00:24:30;;;;;;;28.25;16.58;;;;;;;9.49;100.00;100571.19;5029530;28;20021;-79
2022/03/17 00:26:56;;;;;;;27.95;17.00;;;;;;;9.45;100.00;100570.56;5019927;28;20037;-79
2022/03/17 00:29:21;;;;;;;26.70;17.25;;;;;;;9.42;100.00;100576.03;5029543;28;20496;-78
2022/03/17 00:31:47;;;;;;;27.58;16.63;;;;;;;9.37;100.00;100567.63;5028889;28;20022;-79
2022/03/17 00:34:12;;;;;;;26.73;16.65;;;;;;;9.34;100.00;100578.41;5019711;28;20045;-78
2022/03/17 00:36:38;;;;;;;25.55;16.23;;;;;;;9.33;100.00;100582.00;5029127;28;20053;-78
2022/03/17 00:39:05;;;;;;;25.77;16.90;;;;;;;9.33;100.00;100583.78;5029499;28;20421;-78
2022/03/17 00:41:32;;;;;;;22.63;15.85;;;;;;;9.29;100.00;100588.44;5029427;28;20064;-78
2022/03/17 00:43:57;;;;;;;25.58;17.38;;;;;;;9.30;100.00;100584.84;5029135;28;20494;-79
2022/03/17 00:46:23;;;;;;;26.02;16.42;;;;;;;9.28;100.00;100588.53;5029220;28;20033;-78
2022/03/17 00:48:48;;;;;;;29.80;17.15;;;;;;;9.29;100.00;100592.88;5018994;28;20110;-78
2022/03/17 00:51:14;;;;;;;24.50;17.42;;;;;;;9.24;100.00;100587.94;5029269;28;20132;-78
2022/03/17 00:53:39;;;;;;;22.42;16.23;;;;;;;9.30;100.00;100598.03;5028940;28;20079;-78
2022/03/17 00:56:04;;;;;;;27.50;16.77;;;;;;;9.39;100.00;100591.25;5028899;28;20044;-78
2022/03/17 00:58:30;;;;;;;25.05;15.50;;;;;;;9.43;100.00;100593.53;5029241;28;20116;-77
2022/03/17 01:00:56;;;;;;;27.48;17.13;;;;;;;9.45;100.00;100623.25;5030689;28;20237;-78
2022/03/17 01:03:22;;;;;;;26.45;17.27;;;;;;;9.50;100.00;100627.34;5032656;28;20411;-78
2022/03/17 01:05:48;;;;;;;22.70;16.85;;;;;;;9.51;100.00;100615.88;5032476;28;20110;-78
2022/03/17 01:08:13;;;;;;;23.55;16.73;;;;;;;9.55;100.00;100612.06;5032833;28;20037;-78
2022/03/17 01:10:42;;;;;;;23.73;16.10;;;;;;;9.58;100.00;100596.03;5032360;28;20113;-78
2022/03/17 01:13:08;;;;;;;26.48;16.45;;;;;;;9.62;100.00;100610.66;5032406;28;20065;-79
2022/03/17 01:15:34;;;;;;;25.55;15.70;;;;;;;9.62;100.00;100614.13;5032379;28;20324;-79
2022/03/17 01:17:59;;;;;;;26.02;15.25;;;;;;;9.65;100.00;100607.81;5032329;28;20051;-78
2022/03/17 01:20:25;;;;;;;29.25;16.65;;;;;;;9.65;100.00;100603.41;5032400;28;20104;-79
2022/03/17 01:22:50;;;;;;;25.73;14.80;;;;;;;9.69;100.00;100610.13;5032145;28;20084;-78
2022/03/17 01:25:16;;;;;;;27.83;16.73;;;;;;;9.70;100.00;100601.25;5032553;28;20552;-78
2022/03/17 01:27:42;;;;;;;25.58;15.05;;;;;;;9.75;100.00;100603.56;5032223;28;20061;-79
2022/03/17 01:30:09;;;;;;;25.88;15.40;;;;;;;9.79;100.00;100610.28;5032307;28;20075;-79
2022/03/17 01:32:37;;;;;;;26.23;15.40;;;;;;;9.81;100.00;100603.94;5022581;28;20052;-78
2022/03/17 01:35:05;;;;;;;25.25;15.10;;;;;;;9.81;100.00;100597.84;5031776;28;20049;-77
2022/03/17 01:37:31;;;;;;;19.13;15.02;;;;;;;9.77;100.00;100601.66;5032042;28;20036;-77
2022/03/17 01:39:56;;;;;;;22.20;14.98;;;;;;;9.74;100.00;100596.59;5031984;28;20056;-78
2022/03/17 01:42:22;;;;;;;29.25;15.85;;;;;;;9.69;100.00;100596.09;5032282;28;20044;-79
2022/03/17 01:44:47;;;;;;;27.15;15.55;;;;;;;9.65;100.00;100592.00;5021997;28;20030;-79
2022/03/17 01:47:28;;;;;;;23.77;15.32;;;;;;;9.63;100.00;100593.91;5031896;28;20113;-80
2022/03/17 01:50:03;;;;;;;22.88;14.90;;;;;;;9.64;100.00;100595.59;5018116;28;20029;-79
2022/03/17 01:52:29;;;;;;;25.45;14.65;;;;;;;9.66;100.00;100589.25;5028949;28;20389;-79
2022/03/17 01:54:55;;;;;;;24.45;14.15;;;;;;;9.69;100.00;100593.47;5031142;28;20037;-79
2022/03/17 01:57:22;;;;;;;23.50;15.00;;;;;;;9.71;100.00;100583.66;5031463;28;20852;-78
2022/03/17 01:59:48;;;;;;;21.55;14.55;;;;;;;9.75;100.00;100593.00;5029314;28;20045;-79
2022/03/17 02:02:14;;;;;;;22.40;15.02;;;;;;;9.76;100.00;100594.69;5029688;28;20041;-79
2022/03/17 02:04:41;;;;;;;21.13;14.30;;;;;;;9.73;100.00;100584.38;5029777;28;20034;-79
2022/03/17 02:07:08;;;;;;;24.85;14.10;;;;;;;9.68;100.00;100589.97;5031748;28;20044;-79
2022/03/17 02:09:34;;;;;;;25.02;14.60;;;;;;;9.62;100.00;100592.22;5032044;28;20480;-78
2022/03/17 02:14:51;;;;;;;21.45;14.43;;;;;;;9.64;100.00;100591.16;5021550;28;20117;-79
2022/03/17 02:17:18;;;;;;;24.70;16.63;;;;;;;9.64;100.00;100585.06;5032074;28;20385;-79
2022/03/17 02:19:44;;;;;;;28.63;16.17;;;;;;;9.60;100.00;100588.88;5031286;28;20029;-78
2022/03/17 02:22:13;;;;;;;28.80;16.25;;;;;;;9.57;100.00;100573.28;5032219;28;20037;-78
2022/03/17 02:27:29;;;;;;;23.67;15.77;;;;;;;9.59;100.00;100587.19;5028374;28;20481;-78
2022/03/17 02:29:55;;;;;;;27.95;16.63;;;;;;;9.62;100.00;100584.31;5031409;28;20044;-78
2022/03/17 02:32:21;;;;;;;27.10;16.80;;;;;;;9.60;100.00;100583.59;5032068;28;20029;-79
2022/03/17 02:34:47;;;;;;;27.83;17.10;;;;;;;9.52;100.00;100585.94;5030391;28;20045;-78
2022/03/17 02:37:13;;;;;;;27.55;17.38;;;;;;;9.51;100.00;100584.25;5031556;28;20448;-79
2022/03/17 02:39:39;;;;;;;25.77;17.10;;;;;;;9.49;100.00;100583.50;5021878;28;20037;-79
2022/03/17 02:42:05;;;;;;;30.52;17.88;;;;;;;9.49;100.00;100581.72;5031559;28;20029;-77
2022/03/17 02:44:32;;;;;;;25.27;17.08;;;;;;;9.50;100.00;100582.56;5031050;28;20038;-79
2022/03/17 02:46:59;;;;;;;30.65;17.65;;;;;;;9.52;100.00;100581.50;5030728;28;20037;-79
2022/03/17 02:49:26;;;;;;;29.60;17.45;;;;;;;9.53;100.00;100582.34;5030562;28;20064;-79
2022/03/17 02:51:53;;;;;;;27.23;17.63;;;;;;;9.51;100.00;100594.78;5030368;28;20025;-78
2022/03/17 02:54:19;;;;;;;27.13;17.73;;;;;;;9.41;100.00;100586.72;5031263;28;20423;-78
2022/03/17 02:56:44;;;;;;;26.05;16.38;;;;;;;9.41;100.00;100584.09;5030773;28;20041;-78
2022/03/17 02:59:10;;;;;;;28.75;17.23;;;;;;;9.41;100.00;100582.28;5022888;28;20037;-77
2022/03/17 03:01:37;;;;;;;29.83;17.85;;;;;;;9.41;100.00;100590.19;5040037;28;20048;-78
2022/03/17 03:04:02;;;;;;;26.92;17.13;;;;;;;9.42;100.00;100586.59;5039469;28;20673;-78
2022/03/17 03:06:28;;;;;;;26.10;17.38;;;;;;;9.45;100.00;100585.53;5028201;28;20017;-78
2022/03/17 03:08:53;;;;;;;26.75;17.05;;;;;;;9.43;100.00;100590.91;5045030;28;20037;-78
2022/03/17 03:11:19;;;;;;;25.30;17.48;;;;;;;9.42;100.00;100591.84;5040896;28;20030;-78
2022/03/17 03:13:44;;;;;;;26.95;18.52;;;;;;;9.37;100.00;100583.44;5044395;28;20041;-79
2022/03/17 03:16:13;;;;;;;28.27;18.70;;;;;;;9.37;100.00;100588.72;5046576;28;20431;-77
2022/03/17 03:18:40;;;;;;;29.35;18.20;;;;;;;9.38;100.00;100589.56;5045111;28;20101;-77
2022/03/17 03:21:07;;;;;;;28.42;18.30;;;;;;;9.39;100.00;100585.97;5047576;28;20155;-78
2022/03/17 03:23:33;;;;;;;25.20;17.90;;;;;;;9.38;100.00;100585.13;5037561;28;20044;-79
2022/03/17 03:25:59;;;;;;;31.48;18.52;;;;;;;9.38;100.00;100587.75;5008176;28;20489;-79
2022/03/17 03:28:24;;;;;;;29.63;18.77;;;;;;;9.33;100.00;100592.53;5031397;28;20045;-77
2022/03/17 03:30:50;;;;;;;29.33;18.98;;;;;;;9.29;100.00;100592.88;5030715;28;20079;-79
2022/03/17 03:33:16;;;;;;;25.92;18.52;;;;;;;9.25;100.00;100584.31;5031023;28;20041;-78
2022/03/17 03:38:26;;;;;;;26.75;18.63;;;;;;;9.27;100.00;100598.22;5027771;28;20079;-78
2022/03/17 03:40:52;;;;;;;27.63;18.30;;;;;;;9.26;100.00;100595.69;5021353;28;20037;-78
2022/03/17 03:43:18;;;;;;;30.50;18.27;;;;;;;9.27;100.00;100592.97;5020773;28;20029;-78
2022/03/17 03:45:43;;;;;;;30.55;19.75;;;;;;;9.24;100.00;100598.47;5020450;28;20025;-78
2022/03/17 03:48:09;;;;;;;30.00;18.15;;;;;;;9.15;100.00;100596.47;5030500;28;20503;-78
2022/03/17 03:50:34;;;;;;;32.78;18.58;;;;;;;9.17;100.00;100602.47;5029867;28;20030;-78
2022/03/17 03:53:00;;;;;;;30.88;18.70;;;;;;;9.22;100.00;100604.78;5030115;28;20041;-78
2022/03/17 03:55:25;;;;;;;32.13;18.42;;;;;;;9.25;100.00;100600.13;5030187;28;20060;-78
2022/03/17 03:57:51;;;;;;;25.65;18.33;;;;;;;9.27;100.00;100598.22;5029823;28;20026;-78
2022/03/17 04:00:29;;;;;;;29.48;18.88;;;;;;;9.23;100.00;100602.03;5020858;28;20496;-78
2022/03/17 04:02:58;;;;;;;26.95;18.38;;;;;;;9.16;100.00;100606.06;5026444;28;20037;-79
2022/03/17 04:05:29;;;;;;;32.03;19.40;;;;;;;9.13;100.00;100606.25;5030143;28;20033;-77
2022/03/17 04:07:57;;;;;;;35.08;19.88;;;;;;;9.14;100.00;100604.47;5026759;28;20104;-79
2022/03/17 04:10:24;;;;;;;36.55;19.52;;;;;;;9.11;100.00;100608.19;5026852;28;20022;-79
2022/03/17 04:12:51;;;;;;;25.58;19.13;;;;;;;9.05;100.00;100608.59;5022145;28;20041;-78
2022/03/17 04:15:16;;;;;;;31.08;19.35;;;;;;;9.04;100.00;100604.28;5030958;28;20080;-79
2022/03/17 04:17:42;;;;;;;31.58;19.55;;;;;;;9.06;100.00;100610.28;5031935;28;20025;-78
2022/03/17 04:20:09;;;;;;;31.38;18.95;;;;;;;9.10;100.00;100611.75;5009748;28;20088;-78
2022/03/17 04:22:35;;;;;;;33.85;19.92;;;;;;;9.15;100.00;100609.63;5030051;28;20034;-79
2022/03/17 04:25:00;;;;;;;28.65;17.90;;;;;;;9.19;100.00;100611.09;5039860;28;20045;-79
2022/03/17 04:27:26;;;;;;;26.42;18.85;;;;;;;9.24;100.00;100608.16;5044657;28;20045;-79
2022/03/17 04:29:51;;;;;;;30.27;18.23;;;;;;;9.24;100.00;100614.25;5045468;28;20033;-78
2022/03/17 04:32:17;;;;;;;27.27;19.35;;;;;;;9.27;100.00;100611.41;5047456;28;20038;-79
2022/03/17 04:34:42;;;;;;;25.67;18.33;;;;;;;9.30;100.00;100616.47;5046948;28;20044;-77
2022/03/17 04:37:07;;;;;;;29.02;18.20;;;;;;;9.33;100.00;100618.03;5047335;28;20029;-76
2022/03/17 04:39:33;;;;;;;30.73;19.73;;;;;;;9.32;100.00;100614.53;5036997;28;20025;-79
2022/03/17 04:41:58;;;;;;;26.88;18.90;;;;;;;9.32;100.00;100611.91;5022088;28;20033;-77
2022/03/17 04:44:24;;;;;;;27.98;19.40;;;;;;;9.30;100.00;100611.19;5035511;28;20037;-77
2022/03/17 04:46:50;;;;;;;27.08;19.15;;;;;;;9.26;100.00;100614.97;5034430;28;20033;-78
2022/03/17 04:49:16;;;;;;;29.00;18.85;;;;;;;9.28;100.00;100615.72;5038696;28;20087;-77
2022/03/17 04:51:41;;;;;;;26.65;19.02;;;;;;;9.27;100.00;100619.31;5048686;28;20033;-77
2022/03/17 04:54:11;;;;;;;34.00;18.13;;;;;;;9.27;100.00;100618.47;5047488;28;20038;-77
2022/03/17 04:56:36;;;;;;;31.23;19.00;;;;;;;9.25;100.00;100621.19;5041007;28;20497;-77
2022/03/17 04:59:02;;;;;;;29.10;20.23;;;;;;;9.25;100.00;100618.56;5042463;28;20084;-78
2022/03/17 05:01:28;;;;;;;27.85;18.85;;;;;;;9.27;100.00;100623.72;5040942;28;20076;-79
2022/03/17 05:03:53;;;;;;;29.98;19.13;;;;;;;9.27;100.00;100623.72;5025402;28;20041;-79
2022/03/17 05:06:20;;;;;;;32.45;20.30;;;;;;;9.29;100.00;100627.94;5033831;28;20056;-79
2022/03/17 05:08:46;;;;;;;28.88;20.60;;;;;;;9.30;100.00;100624.38;5033191;28;20099;-78
2022/03/17 05:11:13;;;;;;;33.40;19.45;;;;;;;9.22;100.00;100626.69;5033148;28;20056;-78
2022/03/17 05:13:44;;;;;;;34.08;20.70;;;;;;;9.14;100.00;100629.00;5032723;28;20060;-80
2022/03/17 05:16:10;;;;;;;28.55;19.35;;;;;;;9.10;100.00;100627.56;5033210;28;20065;-79
2022/03/17 05:18:36;;;;;;;25.40;18.83;;;;;;;9.08;100.00;100628.59;5022939;28;20041;-78
2022/03/17 05:21:03;;;;;;;36.05;19.30;;;;;;;9.08;100.00;100628.59;5023674;28;20037;-80
2022/03/17 05:23:30;;;;;;;32.67;18.95;;;;;;;9.06;100.00;100626.09;5032635;28;20541;-78
2022/03/17 05:25:58;;;;;;;30.77;18.92;;;;;;;9.07;100.00;100625.16;5032389;28;20088;-78
2022/03/17 05:28:24;;;;;;;23.70;18.90;;;;;;;9.12;100.00;100628.28;5033057;28;20080;-79
2022/03/17 05:30:49;;;;;;;27.33;19.90;;;;;;;9.15;100.00;100635.97;5032423;28;20472;-78
2022/03/17 05:33:15;;;;;;;33.92;19.25;;;;;;;9.18;100.00;100632.28;5032766;28;20091;-77
2022/03/17 05:35:42;;;;;;;27.55;18.55;;;;;;;9.21;100.00;100640.81;5032632;28;20088;-79
2022/03/17 05:38:09;;;;;;;26.95;19.00;;;;;;;9.21;100.00;100646.06;5032348;28;20132;-78
2022/03/17 05:40:36;;;;;;;39.65;18.77;;;;;;;9.12;100.00;100646.72;5032143;28;20037;-80
2022/03/17 05:43:06;;;;;;;29.10;18.75;;;;;;;9.07;100.00;100648.00;5032227;28;20030;-79
2022/03/17 05:45:32;;;;;;;31.58;19.25;;;;;;;9.09;100.00;100651.34;5032159;28;20112;-79
2022/03/17 05:47:59;;;;;;;30.45;18.20;;;;;;;9.12;100.00;100657.25;5031743;28;20032;-79
2022/03/17 05:50:27;;;;;;;32.25;18.50;;;;;;;9.16;100.00;100653.47;5032043;28;20025;-78
2022/03/17 05:52:54;;;;;;;27.88;17.70;;;;;;;9.20;100.00;100664.59;5028110;28;20037;-77
2022/03/17 05:55:24;;;;;;;25.90;17.80;;;;;;;9.25;100.00;100657.22;5032107;28;20113;-79
2022/03/17 05:57:51;;;;;;;29.58;18.95;;;;;;;9.26;100.00;100659.75;5031784;28;20033;-79
2022/03/17 06:00:25;;;;;;;31.42;20.30;;;;;;;9.30;100.00;100666.50;5022644;28;20457;-79
2022/03/17 06:02:51;;;;;;;30.30;18.88;;;;;;;9.33;100.00;100671.56;5027814;28;20037;-79
2022/03/17 06:05:17;;;;;;;31.58;19.33;;;;;;;9.36;100.00;100670.50;5031892;28;20095;-77
2022/03/17 06:07:45;;;;;;;28.58;18.15;;;;;;;9.36;100.00;100673.97;5033171;28;20026;-80
2022/03/17 06:10:16;;;;;;;26.98;18.27;;;;;;;9.38;100.00;100674.69;5032535;28;20033;-78
2022/03/17 06:12:45;;;;;;;26.77;18.13;;;;;;;9.41;100.00;100673.66;5031303;28;20457;-78
2022/03/17 06:15:12;;;;;;;29.98;18.33;;;;;;;9.44;100.00;100679.53;5031884;28;20052;-79
2022/03/17 06:17:43;;;;;;;28.92;18.13;;;;;;;9.47;100.00;100680.28;5031890;28;20060;-79
2022/03/17 06:20:11;;;;;;;29.48;19.10;;;;;;;9.45;100.00;100681.22;5031745;28;20048;-78
2022/03/17 06:22:41;;;;;;;29.40;18.08;;;;;;;9.43;100.00;100684.91;5031712;28;20044;-78
2022/03/17 06:25:10;;;;;;;26.23;18.02;;;;;;;9.42;100.00;100697.22;5022641;28;20044;-79
2022/03/17 06:27:36;;;;;;;28.90;17.77;;;;;;;9.44;100.00;100687.44;5031374;28;20413;-79
2022/03/17 06:30:07;;;;;;;29.70;18.13;;;;;;;9.47;100.00;100689.03;5031971;28;20045;-81
2022/03/17 06:32:39;;;;;;;26.77;18.38;;;;;;;9.51;100.00;100694.91;5031711;28;20041;-81
2022/03/17 06:35:26;;;;;;;31.73;19.52;;;;;;;9.48;100.00;100697.78;5031661;28;20128;-80
2022/03/17 06:37:54;;;;;;;29.52;17.08;;;;;;;9.48;100.00;100696.00;5027491;28;20052;-80
2022/03/17 06:40:22;;;;;;;31.08;18.73;;;;;;;9.52;100.00;100696.59;5021386;28;20458;-80
2022/03/17 06:42:49;;;;;;;23.88;17.83;;;;;;;9.45;100.00;100702.31;5020738;28;20042;-79
2022/03/17 06:45:15;;;;;;;31.70;17.95;;;;;;;9.43;100.00;100705.97;5031988;28;20045;-80
2022/03/17 06:47:41;;;;;;;26.75;16.98;;;;;;;9.41;100.00;100706.13;5036079;28;20056;-81
2022/03/17 06:50:08;;;;;;;29.00;18.13;;;;;;;9.38;100.00;100701.03;5048700;28;20088;-78
2022/03/17 06:52:34;;;;;;;24.98;17.25;;;;;;;9.39;100.00;100702.72;5047129;28;20034;-78
2022/03/17 06:55:00;;;;;;;25.40;17.00;;;;;;;9.33;100.00;100708.44;5054367;28;20124;-80
2022/03/17 06:57:25;;;;;;;26.77;18.35;;;;;;;9.29;100.00;100706.97;4677073;28;9999740;-77
2022/03/17 06:59:51;;;;;;;31.52;18.83;;;;;;;9.29;100.00;100706.13;5033047;28;20034;-80
2022/03/17 07:02:18;;;;;;;27.17;18.67;;;;;;;9.29;100.00;100708.75;5033195;28;20481;-76
2022/03/17 07:04:44;;;;;;;27.83;18.48;;;;;;;9.33;100.00;100713.69;5032826;28;20028;-80
2022/03/17 07:07:09;;;;;;;29.17;19.98;;;;;;;9.38;100.00;100711.56;5032790;28;20033;-79
2022/03/17 07:09:36;;;;;;;28.38;18.33;;;;;;;9.41;100.00;100716.66;5033958;28;20136;-79
2022/03/17 07:12:02;;;;;;;27.15;19.23;;;;;;;9.39;100.00;100721.16;5032161;28;20045;-79
2022/03/17 07:14:28;;;;;;;31.67;20.13;;;;;;;9.43;100.00;100719.16;5033788;28;20044;-79
2022/03/17 07:16:54;;;;;;;35.17;20.40;;;;;;;9.48;100.00;100721.50;5034040;28;20038;-78
2022/03/17 07:19:19;;;;;;;31.70;20.02;;;;;;;9.52;100.00;100728.22;5041924;28;20104;-80
2022/03/17 07:21:45;;;;;;;34.10;22.35;;;;;;;9.55;100.00;100718.28;5043835;28;20036;-78
2022/03/17 07:24:10;;;;;;;33.90;22.85;;;;;;;9.54;100.00;100727.19;5044944;28;20018;-77
2022/03/17 07:26:36;;;;;;;38.13;23.33;;;;;;;9.52;100.00;100728.22;5048433;28;20040;-80
2022/03/17 07:29:03;;;;;;;43.78;24.55;;;;;;;9.51;100.00;100737.06;5036001;28;20033;-78
2022/03/17 07:31:29;;;;;;;56.00;31.85;;;;;;;9.51;100.00;100739.72;5032194;28;20174;-77
2022/03/17 07:33:55;;;;;;;49.17;30.70;;;;;;;9.53;100.00;100740.44;5031609;28;20072;-78
2022/03/17 07:36:21;;;;;;;49.00;30.27;;;;;;;9.54;100.00;100739.50;5017422;28;20061;-79
2022/03/17 07:38:48;;;;;;;57.10;32.15;;;;;;;9.59;100.00;100745.28;5030976;28;20508;-79
2022/03/17 07:41:14;;;;;;;46.63;28.65;;;;;;;9.65;100.00;100747.50;5032082;28;20035;-79
2022/03/17 07:43:43;;;;;;;47.67;28.75;;;;;;;9.69;100.00;100741.06;5035068;28;20035;-81
2022/03/17 07:46:38;;;;;;;36.72;25.58;;;;;;;9.77;100.00;100744.84;5030833;28;20490;-79
2022/03/17 07:49:20;;;;;;;39.92;24.30;;;;;;;9.81;100.00;100756.00;5022059;28;20053;-79
2022/03/17 07:51:46;;;;;;;41.00;24.90;;;;;;;9.81;100.00;100753.38;5021690;28;20038;-80
2022/03/17 07:54:13;;;;;;;41.63;26.35;;;;;;;9.77;100.00;100759.81;5031532;28;20107;-79
2022/03/17 07:56:38;;;;;;;40.25;24.38;;;;;;;9.80;100.00;100759.59;5030533;28;20029;-80
2022/03/17 07:59:04;;;;;;;43.42;27.55;;;;;;;9.79;100.00;100763.16;5021683;28;20092;-78
2022/03/17 08:01:29;;;;;;;41.10;27.00;;;;;;;9.73;100.00;100763.59;5032087;28;20773;-79
2022/03/17 08:03:55;;;;;;;41.83;26.20;;;;;;;9.72;100.00;100757.47;5031511;28;20029;-79
2022/03/17 08:06:22;;;;;;;50.63;31.15;;;;;;;9.68;100.00;100760.44;5030951;28;20040;-80
2022/03/17 08:08:48;;;;;;;56.05;30.65;;;;;;;9.68;100.00;100760.44;5030046;28;20042;-81
2022/03/17 08:11:13;;;;;;;48.97;29.65;;;;;;;9.68;100.00;100760.44;5030857;28;20030;-79
2022/03/17 08:13:39;;;;;;;53.80;32.55;;;;;;;9.67;100.00;100764.88;5027368;28;20076;-80
2022/03/17 08:16:06;;;;;;;48.67;30.98;;;;;;;9.69;100.00;100770.03;5030334;28;20033;-77
2022/03/17 08:18:34;;;;;;;51.50;32.42;;;;;;;9.70;100.00;100771.72;5030801;28;20084;-77
2022/03/17 08:20:59;;;;;;;63.65;37.65;;;;;;;9.69;100.00;100772.69;5030118;28;20056;-76
2022/03/17 08:23:25;;;;;;;64.30;39.50;;;;;;;9.73;100.00;100779.41;5030689;28;20037;-78
2022/03/17 08:25:51;;;;;;;68.45;44.47;;;;;;;9.72;100.00;100773.28;5025845;28;20037;-77
2022/03/17 08:28:17;;;;;;;74.13;45.85;;;;;;;9.71;100.00;100776.91;5013369;28;20037;-75
2022/03/17 08:30:46;;;;;;;66.85;44.17;;;;;;;9.75;100.00;100774.88;5028202;28;20090;-76
2022/03/17 08:33:14;;;;;;;70.22;43.72;;;;;;;9.75;100.00;100780.16;5029090;28;20494;-78
2022/03/17 08:35:40;;;;;;;76.68;46.47;;;;;;;9.79;100.00;100778.97;5029342;28;20076;-78
2022/03/17 08:38:06;;;;;;;81.82;50.00;;;;;;;9.82;100.00;100781.41;5034205;28;20033;-74
2022/03/17 08:40:32;;;;;;;82.70;48.58;;;;;;;9.81;100.00;100770.03;5043316;28;20029;-75
2022/03/17 08:42:57;;;;;;;85.10;50.38;;;;;;;9.83;100.00;100776.03;5039302;28;20038;-74
2022/03/17 08:50:52;;;;;;;84.63;50.60;;;;;;;9.91;100.00;100778.13;5029174;28;20038;-75
2022/03/17 08:53:17;;;;;;;87.57;53.75;;;;;;;9.95;100.00;100774.34;5029536;28;20034;-75
2022/03/17 08:55:42;;;;;;;88.07;51.38;;;;;;;9.95;100.00;100782.25;5010961;28;20034;-75
2022/03/17 08:58:08;;;;;;;86.90;53.88;;;;;;;9.97;100.00;100780.31;5028363;28;20069;-74
2022/03/17 09:00:35;;;;;;;95.78;54.63;;;;;;;9.98;100.00;100778.53;5028316;28;20025;-74
2022/03/17 09:03:04;;;;;;;86.80;53.70;;;;;;;9.99;100.00;100781.06;5028516;28;20038;-74
2022/03/17 09:05:32;;;;;;;92.05;55.20;;;;;;;10.02;100.00;100788.75;5027769;28;20037;-75
2022/03/17 09:07:59;;;;;;;93.55;55.92;;;;;;;10.07;100.00;100783.16;4677570;28;9999636;-74
2022/03/17 09:10:25;;;;;;;101.43;59.10;;;;;;;10.09;100.00;100786.50;5025766;28;20061;-74
2022/03/17 09:12:55;;;;;;;101.93;62.17;;;;;;;10.10;100.00;100789.03;5028095;28;20476;-73
2022/03/17 09:15:30;;;;;;;98.85;59.50;;;;;;;10.11;100.00;100788.09;5028381;28;20151;-73
2022/03/17 09:17:56;;;;;;;97.35;59.35;;;;;;;10.17;100.00;100790.34;5025867;28;20039;-73
2022/03/17 09:20:22;;;;;;;98.70;60.85;;;;;;;10.24;100.00;100786.31;5027627;28;20788;-73
2022/03/17 09:22:49;;;;;;;97.05;59.67;;;;;;;10.31;100.00;100791.13;5030362;28;20120;-72
2022/03/17 09:25:15;;;;;;;104.03;60.92;;;;;;;10.41;100.00;100794.78;5032217;28;20029;-73
2022/03/17 09:27:40;;;;;;;98.32;60.35;;;;;;;10.52;100.00;100789.56;5022349;28;20111;-73
2022/03/17 09:30:06;;;;;;;98.13;61.88;;;;;;;10.58;100.00;100791.75;5031935;28;20090;-74
2022/03/17 09:32:32;;;;;;;96.30;60.10;;;;;;;10.64;100.00;100788.66;5019875;28;20033;-78
2022/03/17 09:34:58;;;;;;;95.35;59.78;;;;;;;10.71;100.00;100786.41;5031648;28;20120;-79
2022/03/17 09:37:25;;;;;;;99.57;59.47;;;;;;;10.76;100.00;100787.75;5032412;28;20091;-75
2022/03/17 09:39:51;;;;;;;96.97;60.15;;;;;;;10.84;100.00;100785.38;5029075;28;20029;-75
2022/03/17 09:42:21;;;;;;;95.72;60.33;;;;;;;10.87;100.00;100785.16;5031526;28;20073;-75
2022/03/17 09:44:53;;;;;;;97.40;59.47;;;;;;;10.95;100.00;100787.22;5032102;28;20048;-75
2022/03/17 09:47:20;;;;;;;98.13;60.03;;;;;;;11.00;100.00;100785.94;5031346;28;20569;-75
2022/03/17 09:49:53;;;;;;;96.88;59.90;;;;;;;11.02;100.00;100786.63;5030442;28;20126;-76
2022/03/17 09:52:22;;;;;;;99.65;61.70;;;;;;;11.02;100.00;100784.00;4997278;28;20033;-75
2022/03/17 09:54:49;;;;;;;92.13;58.28;;;;;;;11.08;100.00;100791.47;5032087;28;20103;-74
2022/03/17 09:57:16;;;;;;;97.18;57.55;;;;;;;11.12;100.00;100786.81;5031732;28;20099;-75
2022/03/17 09:59:49;;;;;;;92.40;57.50;;;;;;;11.20;100.00;100786.19;5032649;28;20123;-75
2022/03/17 10:02:17;;;;;;;96.03;58.88;;;;;;;11.26;100.00;100785.72;5032730;28;20087;-75
2022/03/17 10:04:44;;;;;;;90.72;56.70;;;;;;;11.31;100.00;100794.16;5031822;28;20075;-75
2022/03/17 10:07:15;;;;;;;88.50;54.88;;;;;;;11.32;100.00;100794.03;5032267;28;20389;-74
2022/03/17 10:09:42;;;;;;;93.25;57.78;;;;;;;11.36;100.00;100792.00;5031755;28;20068;-74
2022/03/17 10:12:10;;;;;;;86.05;55.30;;;;;;;11.44;100.00;100792.25;5032438;28;20081;-75
2022/03/17 10:14:43;;;;;;;91.68;56.22;;;;;;;11.49;100.00;100792.72;5031989;28;20478;-75
2022/03/17 10:17:31;;;;;;;90.40;56.35;;;;;;;11.47;100.00;100790.22;5032540;28;20071;-75
2022/03/17 10:20:15;;;;;;;82.80;53.10;;;;;;;11.55;100.00;100792.25;5027960;28;20033;-75
2022/03/17 10:22:47;;;;;;;87.55;55.60;;;;;;;11.56;100.00;100791.31;5032199;28;20386;-76
2022/03/17 10:25:17;;;;;;;88.63;55.58;;;;;;;11.57;100.00;100790.34;5035445;28;20044;-74
2022/03/17 10:27:46;;;;;;;91.22;55.67;;;;;;;11.58;100.00;100791.19;5052331;28;20099;-76
2022/03/17 10:30:23;;;;;;;83.88;53.22;;;;;;;11.64;100.00;100791.56;5048682;28;20064;-77
2022/03/17 10:33:00;;;;;;;88.57;54.08;;;;;;;11.71;100.00;100794.56;5038938;28;20371;-75
2022/03/17 10:35:34;;;;;;;79.55;51.85;;;;;;;11.70;100.00;100790.25;5036266;28;20037;-75
2022/03/17 10:38:13;;;;;;;81.13;51.28;;;;;;;11.74;100.00;100800.47;5032298;28;20041;-76
2022/03/17 10:40:41;;;;;;;79.45;50.17;;;;;;;11.69;100.00;100786.75;5032167;28;20547;-75
2022/03/17 10:43:15;;;;;;;82.00;49.60;;;;;;;11.76;100.00;100789.78;5032433;28;20116;-76
2022/03/17 10:45:41;;;;;;;79.40;51.47;;;;;;;11.79;100.00;100790.38;5031735;28;20069;-76
2022/03/17 10:48:07;;;;;;;76.38;50.47;;;;;;;11.84;100.00;100804.06;5032076;28;20037;-75
2022/03/17 10:50:38;;;;;;;80.53;49.58;;;;;;;11.92;100.00;100800.00;5031498;28;20036;-76
2022/03/17 10:53:04;;;;;;;84.63;49.80;;;;;;;11.95;100.00;100794.47;5031415;28;20386;-77
2022/03/17 10:55:35;;;;;;;75.00;48.28;;;;;;;11.96;100.00;100796.97;5030803;28;20049;-75
2022/03/17 10:58:10;;;;;;;72.40;47.88;;;;;;;12.03;100.00;100802.63;5028546;28;20057;-76
2022/03/17 11:00:48;;;;;;;78.47;48.17;;;;;;;12.07;100.00;100796.16;5027744;28;20124;-77
2022/03/17 11:03:14;;;;;;;76.10;48.22;;;;;;;12.07;100.00;100797.00;5029932;28;20120;-75
2022/03/17 11:05:40;;;;;;;74.35;49.13;;;;;;;12.06;100.00;100797.13;5029690;28;20804;-74
2022/03/17 11:08:09;;;;;;;80.63;50.03;;;;;;;12.04;100.00;100802.50;4676963;28;10000147;-74
2022/03/17 11:10:38;;;;;;;82.22;50.30;;;;;;;12.01;100.00;100804.56;5027731;28;20052;-75
2022/03/17 11:13:09;;;;;;;79.05;49.90;;;;;;;11.99;100.00;100790.63;5028083;28;20053;-75
2022/03/17 11:15:40;;;;;;;80.80;51.38;;;;;;;11.93;100.00;100799.03;5030360;28;20508;-75
2022/03/17 11:18:10;;;;;;;79.18;50.95;;;;;;;11.94;100.00;100798.09;5026404;28;20056;-75
2022/03/17 11:20:36;;;;;;;76.78;50.67;;;;;;;11.97;100.00;100789.88;5036624;28;20025;-77